createdAt,value
2022-07-27T00:00:28.916Z,1.90
2022-07-27T00:03:14.533Z,3.63
2022-07-27T00:06:00.302Z,1.83
2022-07-27T00:08:46.012Z,1.88
2022-07-27T00:11:31.491Z,1.83
2022-07-27T00:14:16.998Z,1.70
2022-07-27T00:17:02.634Z,1.90
2022-07-27T00:19:48.323Z,1.85
2022-07-27T00:22:33.552Z,1.90
2022-07-27T00:25:19.275Z,2.38
2022-07-27T00:28:05.007Z,2.13
2022-07-27T00:30:50.211Z,2.22
2022-07-27T00:33:36.098Z,2.15
2022-07-27T00:36:22.107Z,1.88
2022-07-27T00:39:07.760Z,2.08
2022-07-27T00:41:53.985Z,1.98
2022-07-27T00:44:39.875Z,2.65
2022-07-27T00:47:26.402Z,1.75
2022-07-27T00:50:11.924Z,1.95
2022-07-27T00:52:57.230Z,1.92
2022-07-27T00:55:43.125Z,1.75
2022-07-27T00:58:29.775Z,1.90
2022-07-27T01:01:16.548Z,1.80
2022-07-27T01:04:01.865Z,2.65
2022-07-27T01:06:50.012Z,2.00
2022-07-27T01:09:54.184Z,2.47
2022-07-27T01:12:39.784Z,2.95
2022-07-27T01:15:25.937Z,1.95
2022-07-27T01:18:27.988Z,2.40
2022-07-27T01:21:13.475Z,3.08
2022-07-27T01:23:58.997Z,1.83
2022-07-27T01:26:44.855Z,2.30
2022-07-27T01:29:31.913Z,3.28
2022-07-27T01:32:17.526Z,3.08
2022-07-27T01:35:02.997Z,2.15
2022-07-27T01:37:51.563Z,2.85
2022-07-27T01:40:37.929Z,2.30
2022-07-27T01:43:24.314Z,1.92
2022-07-27T01:46:09.952Z,2.40
2022-07-27T01:48:55.675Z,2.50
2022-07-27T01:51:41.222Z,1.98
2022-07-27T01:54:26.528Z,2.00
2022-07-27T01:57:12.126Z,1.98
2022-07-27T01:59:57.521Z,2.40
2022-07-27T02:02:43.047Z,1.85
2022-07-27T02:05:28.853Z,2.15
2022-07-27T02:08:14.395Z,2.20
2022-07-27T02:11:18.182Z,2.22
2022-07-27T02:14:03.913Z,2.85
2022-07-27T02:16:50.682Z,2.15
2022-07-27T02:19:36.456Z,1.80
2022-07-27T02:22:21.918Z,1.92
2022-07-27T02:25:08.543Z,2.22
2022-07-27T02:27:54.003Z,2.42
2022-07-27T02:30:39.532Z,2.28
2022-07-27T02:33:25.075Z,2.35
2022-07-27T02:36:10.773Z,2.20
2022-07-27T02:38:56.995Z,2.75
2022-07-27T02:41:42.539Z,2.33
2022-07-27T02:44:27.831Z,2.22
2022-07-27T02:47:13.417Z,2.63
2022-07-27T02:49:58.698Z,2.17
2022-07-27T02:52:44.001Z,2.20
2022-07-27T02:55:29.660Z,2.00
2022-07-27T02:58:15.105Z,1.92
2022-07-27T03:01:00.612Z,1.58
2022-07-27T03:03:46.211Z,1.95
2022-07-27T03:06:31.858Z,1.83
2022-07-27T03:09:17.845Z,1.50
2022-07-27T03:12:03.576Z,1.90
2022-07-27T03:14:48.842Z,1.38
2022-07-27T03:17:34.539Z,1.92
2022-07-27T03:20:20.050Z,1.65
2022-07-27T03:23:05.769Z,1.52
2022-07-27T03:25:51.445Z,1.70
2022-07-27T03:28:37.207Z,1.75
2022-07-27T03:31:23.223Z,1.90
2022-07-27T03:34:08.786Z,1.52
2022-07-27T03:36:54.817Z,1.30
2022-07-27T03:39:40.355Z,2.53
2022-07-27T03:42:25.737Z,1.73
2022-07-27T03:45:11.537Z,1.98
2022-07-27T03:47:57.248Z,1.65
2022-07-27T03:50:42.890Z,1.77
2022-07-27T03:53:28.381Z,2.60
2022-07-27T03:56:13.900Z,1.52
2022-07-27T03:59:00.187Z,1.95
2022-07-27T04:01:46.139Z,1.92
2022-07-27T04:04:31.946Z,1.80
2022-07-27T04:07:17.226Z,1.50
2022-07-27T04:10:03.734Z,2.08
2022-07-27T04:12:49.374Z,1.40
2022-07-27T04:15:35.353Z,1.90
2022-07-27T04:18:20.967Z,1.83
2022-07-27T04:21:06.439Z,2.38
2022-07-27T04:23:51.809Z,1.73
2022-07-27T04:26:37.585Z,1.70
2022-07-27T04:29:23.570Z,1.50
2022-07-27T04:32:09.085Z,3.22
2022-07-27T04:34:54.615Z,1.88
2022-07-27T04:37:40.406Z,1.92
2022-07-27T04:40:43.558Z,1.98
2022-07-27T04:43:29.605Z,1.80
2022-07-27T04:46:15.776Z,2.22
2022-07-27T04:49:01.497Z,2.05
2022-07-27T04:51:46.955Z,2.00
2022-07-27T04:54:32.349Z,2.38
2022-07-27T04:57:18.051Z,2.55
2022-07-27T05:00:05.542Z,2.30
2022-07-27T05:02:51.105Z,2.40
2022-07-27T05:05:37.195Z,2.30
2022-07-27T05:08:22.969Z,2.15
2022-07-27T05:11:08.684Z,2.70
2022-07-27T05:13:54.290Z,2.22
2022-07-27T05:16:40.621Z,2.05
2022-07-27T05:19:39.777Z,1.70
2022-07-27T05:22:26.401Z,1.73
2022-07-27T05:25:11.827Z,1.83
2022-07-27T05:27:57.998Z,1.48
2022-07-27T05:30:43.252Z,1.27
2022-07-27T05:33:28.842Z,1.63
2022-07-27T05:36:14.559Z,1.52
2022-07-27T05:39:00.140Z,1.40
2022-07-27T05:41:45.636Z,2.25
2022-07-27T05:44:31.291Z,1.65
2022-07-27T05:47:16.937Z,1.30
2022-07-27T05:50:02.401Z,1.27
2022-07-27T05:52:47.819Z,1.40
2022-07-27T05:55:33.537Z,1.55
2022-07-27T05:58:19.089Z,1.55
2022-07-27T06:01:09.923Z,1.70
2022-07-27T06:03:55.703Z,1.02
2022-07-27T06:06:59.794Z,1.50
2022-07-27T06:09:45.414Z,1.77
2022-07-27T06:12:30.974Z,1.48
2022-07-27T06:15:17.278Z,1.70
2022-07-27T06:18:04.002Z,1.30
2022-07-27T06:20:49.428Z,1.75
2022-07-27T06:23:35.136Z,1.80
2022-07-27T06:26:21.388Z,1.38
2022-07-27T06:29:10.668Z,1.30
2022-07-27T06:31:56.518Z,1.40
2022-07-27T06:34:42.607Z,1.40
2022-07-27T06:37:29.717Z,1.00
2022-07-27T06:40:15.149Z,1.40
2022-07-27T06:43:00.847Z,1.40
2022-07-27T06:45:46.165Z,1.33
2022-07-27T06:48:31.871Z,1.50
2022-07-27T06:51:17.413Z,1.10
2022-07-27T06:54:03.246Z,1.55
2022-07-27T06:56:49.211Z,1.48
2022-07-27T06:59:43.634Z,1.30
2022-07-27T07:02:29.644Z,1.23
2022-07-27T07:05:15.204Z,2.00
2022-07-27T07:08:01.242Z,1.30
2022-07-27T07:10:46.547Z,1.52
2022-07-27T07:13:36.732Z,1.45
2022-07-27T07:16:23.635Z,1.20
2022-07-27T07:19:10.623Z,1.08
2022-07-27T07:21:56.677Z,0.95
2022-07-27T07:24:42.288Z,1.45
2022-07-27T07:27:28.589Z,1.13
2022-07-27T07:30:14.441Z,2.17
2022-07-27T07:32:59.883Z,1.50
2022-07-27T07:36:13.146Z,1.63
2022-07-27T07:38:51.087Z,1.40
2022-07-27T07:41:37.475Z,1.40
2022-07-27T07:44:22.837Z,1.30
2022-07-27T07:47:10.019Z,1.30
2022-07-27T07:49:55.566Z,1.00
2022-07-27T07:52:41.254Z,1.23
2022-07-27T07:55:28.928Z,1.33
2022-07-27T07:58:15.145Z,1.23
2022-07-27T08:01:00.699Z,1.30
2022-07-27T08:03:50.887Z,1.33
2022-07-27T08:06:39.025Z,1.50
2022-07-27T08:09:26.829Z,1.20
2022-07-27T08:12:12.429Z,1.13
2022-07-27T08:14:57.929Z,1.27
2022-07-27T08:17:44.723Z,1.48
2022-07-27T08:20:30.343Z,1.27
2022-07-27T08:23:15.981Z,1.17
2022-07-27T08:26:07.180Z,1.40
2022-07-27T08:28:53.222Z,1.17
2022-07-27T08:31:52.319Z,1.13
2022-07-27T08:34:38.537Z,1.40
2022-07-27T08:37:24.420Z,1.13
2022-07-27T08:43:24.031Z,1.55
2022-07-27T08:46:11.527Z,0.90
2022-07-27T08:48:57.315Z,0.70
2022-07-27T08:51:47.397Z,1.10
2022-07-27T08:54:33.058Z,1.00
2022-07-27T08:57:18.575Z,1.08
2022-07-27T09:00:06.345Z,0.98
2022-07-27T09:02:51.992Z,1.20
2022-07-27T09:05:49.126Z,0.90
2022-07-27T09:08:36.900Z,0.80
2022-07-27T09:11:22.005Z,1.38
2022-07-27T09:14:10.726Z,0.88
2022-07-27T09:17:46.842Z,0.82
2022-07-27T09:20:05.522Z,1.13
2022-07-27T09:22:53.711Z,1.20
2022-07-27T09:26:02.468Z,1.33
2022-07-27T09:28:45.657Z,1.35
2022-07-27T09:31:32.261Z,1.00
2022-07-27T09:34:29.426Z,1.27
2022-07-27T09:37:27.204Z,1.30
2022-07-27T09:40:24.176Z,1.13
2022-07-27T09:44:12.229Z,1.33
2022-07-27T09:46:34.782Z,1.23
2022-07-27T09:49:46.585Z,1.30
2022-07-27T09:52:32.285Z,1.05
2022-07-27T09:55:21.200Z,0.90
2022-07-27T09:58:07.429Z,1.30
2022-07-27T10:01:01.000Z,0.80
2022-07-27T10:03:48.006Z,1.20
2022-07-27T10:06:53.544Z,2.05
2022-07-27T10:09:39.692Z,1.38
2022-07-27T10:12:24.924Z,0.95
2022-07-27T10:15:12.225Z,1.38
2022-07-27T10:18:07.493Z,0.98
2022-07-27T10:20:53.548Z,1.20
2022-07-27T10:23:39.796Z,1.30
2022-07-27T10:26:25.330Z,1.25
2022-07-27T10:29:13.847Z,1.10
2022-07-27T10:32:00.932Z,1.33
2022-07-27T10:34:46.531Z,1.00
2022-07-27T10:37:34.015Z,1.30
2022-07-27T10:40:49.484Z,1.63
2022-07-27T10:43:34.687Z,1.42
2022-07-27T10:46:22.958Z,1.25
2022-07-27T10:49:24.964Z,1.30
2022-07-27T10:52:41.151Z,1.33
2022-07-27T10:55:32.706Z,1.23
2022-07-27T10:58:21.593Z,1.37
2022-07-27T11:01:07.479Z,1.17
2022-07-27T11:03:53.388Z,1.40
2022-07-27T11:07:15.039Z,1.33
2022-07-27T11:12:53.696Z,1.80
2022-07-27T11:15:39.628Z,1.30
2022-07-27T11:18:29.041Z,1.05
2022-07-27T11:21:25.532Z,1.30
2022-07-27T11:24:15.077Z,1.40
2022-07-27T11:27:00.800Z,2.00
2022-07-27T11:30:01.684Z,1.50
2022-07-27T11:32:46.926Z,1.13
2022-07-27T11:35:32.906Z,0.93
2022-07-27T11:38:19.481Z,1.58
2022-07-27T11:41:17.023Z,1.10
2022-07-27T11:44:14.192Z,1.15
2022-07-27T11:47:07.255Z,1.70
2022-07-27T11:49:52.968Z,1.20
2022-07-27T11:52:38.846Z,1.40
2022-07-27T11:55:24.737Z,1.60
2022-07-27T11:58:10.954Z,1.52
2022-07-27T12:00:56.648Z,1.40
2022-07-27T12:03:46.853Z,1.52
2022-07-27T12:06:34.454Z,0.80
2022-07-27T12:09:20.769Z,2.05
2022-07-27T12:12:30.941Z,1.15
2022-07-27T12:15:46.327Z,1.88
2022-07-27T12:18:26.858Z,1.17
2022-07-27T12:21:19.657Z,1.90
2022-07-27T12:24:05.478Z,1.60
2022-07-27T12:27:08.418Z,1.48
2022-07-27T12:29:58.209Z,1.55
2022-07-27T12:32:45.877Z,1.40
2022-07-27T12:35:37.340Z,1.80
2022-07-27T12:41:10.938Z,1.58
2022-07-27T12:44:11.247Z,1.73
2022-07-27T12:47:02.371Z,1.92
2022-07-27T12:50:13.627Z,1.38
2022-07-27T12:52:59.185Z,1.73
2022-07-27T12:55:45.383Z,1.50
2022-07-27T12:58:31.646Z,1.50
2022-07-27T13:01:17.136Z,1.75
2022-07-27T13:04:03.021Z,1.60
2022-07-27T13:06:48.755Z,1.70
2022-07-27T13:10:02.082Z,1.35
2022-07-27T13:12:41.294Z,1.80
2022-07-27T13:15:27.249Z,1.80
2022-07-27T13:18:12.577Z,1.70
2022-07-27T13:20:58.380Z,1.80
2022-07-27T13:23:43.473Z,1.70
2022-07-27T13:26:29.073Z,2.30
2022-07-27T13:29:16.176Z,1.63
2022-07-27T13:32:02.329Z,1.80
2022-07-27T13:34:49.008Z,1.60
2022-07-27T13:37:35.096Z,1.58
2022-07-27T13:40:20.356Z,1.70
2022-07-27T13:43:11.844Z,1.95
2022-07-27T13:45:58.308Z,1.83
2022-07-27T13:48:44.149Z,1.50
2022-07-27T13:51:30.218Z,1.67
2022-07-27T13:54:15.885Z,1.50
2022-07-27T13:57:01.347Z,1.60
2022-07-27T13:59:47.011Z,2.20
2022-07-27T14:02:32.766Z,1.77
2022-07-27T14:05:20.390Z,1.20
2022-07-27T14:08:06.582Z,1.92
2022-07-27T14:10:52.966Z,1.70
2022-07-27T14:13:38.707Z,1.30
2022-07-27T14:16:24.776Z,1.38
2022-07-27T14:19:12.754Z,2.35
2022-07-27T14:21:59.696Z,1.60
2022-07-27T14:24:45.283Z,1.60
2022-07-27T14:27:33.749Z,1.50
2022-07-27T14:30:22.905Z,1.88
2022-07-27T14:33:08.279Z,1.38
2022-07-27T14:35:54.222Z,1.40
2022-07-27T14:38:39.980Z,1.58
2022-07-27T14:41:25.708Z,1.60
2022-07-27T14:44:11.256Z,2.03
2022-07-27T14:46:56.844Z,1.60
2022-07-27T14:49:44.516Z,2.00
2022-07-27T14:52:30.645Z,1.98
2022-07-27T14:55:16.469Z,2.40
2022-07-27T14:58:03.236Z,1.65
2022-07-27T15:00:48.833Z,2.10
2022-07-27T15:03:34.839Z,2.00
2022-07-27T15:06:20.437Z,2.00
2022-07-27T15:09:06.347Z,1.60
2022-07-27T15:11:52.053Z,2.13
2022-07-27T15:14:39.691Z,1.77
2022-07-27T15:17:25.346Z,1.98
2022-07-27T15:20:11.453Z,3.00
2022-07-27T15:22:56.862Z,2.10
2022-07-27T15:25:42.529Z,1.80
2022-07-27T15:28:28.066Z,2.28
2022-07-27T15:31:13.919Z,1.73
2022-07-27T15:33:59.800Z,1.73
2022-07-27T15:36:51.634Z,1.60
2022-07-27T15:39:39.449Z,1.67
2022-07-27T15:42:25.274Z,1.70
2022-07-27T15:45:11.777Z,1.50
2022-07-27T15:47:57.315Z,1.60
2022-07-27T15:50:45.598Z,1.42
2022-07-27T15:53:31.923Z,1.30
2022-07-27T15:56:17.418Z,1.63
2022-07-27T15:59:03.023Z,1.90
2022-07-27T16:01:48.651Z,1.85
2022-07-27T16:04:34.173Z,1.77
2022-07-27T16:07:19.863Z,2.28
2022-07-27T16:10:05.884Z,1.20
2022-07-27T16:12:51.093Z,1.30
2022-07-27T16:15:56.246Z,1.50
2022-07-27T16:18:41.751Z,1.27
2022-07-27T16:21:28.634Z,1.20
2022-07-27T16:24:38.080Z,1.05
2022-07-27T16:27:23.826Z,1.50
2022-07-27T16:30:09.450Z,1.80
2022-07-27T16:32:55.506Z,1.40
2022-07-27T16:35:42.837Z,1.50
2022-07-27T16:38:28.417Z,1.23
2022-07-27T16:41:16.253Z,1.40
2022-07-27T16:44:02.167Z,1.13
2022-07-27T16:46:48.818Z,1.33
2022-07-27T16:49:36.911Z,1.50
2022-07-27T16:52:22.717Z,1.02
2022-07-27T16:55:08.606Z,1.45
2022-07-27T16:57:54.050Z,0.80
2022-07-27T17:00:39.762Z,1.33
2022-07-27T17:03:25.276Z,0.98
2022-07-27T17:06:10.785Z,1.08
2022-07-27T17:08:56.436Z,1.33
2022-07-27T17:11:42.196Z,2.78
2022-07-27T17:14:28.089Z,3.42
2022-07-27T17:17:14.738Z,2.90
2022-07-27T17:20:00.167Z,1.67
2022-07-27T17:22:45.584Z,1.40
2022-07-27T17:25:31.533Z,1.00
2022-07-27T17:28:17.342Z,0.80
2022-07-27T17:31:04.125Z,0.93
2022-07-27T17:33:51.159Z,0.82
2022-07-27T17:36:36.681Z,0.73
2022-07-27T17:39:22.458Z,0.73
2022-07-27T17:42:08.167Z,1.00
2022-07-27T17:44:53.783Z,1.60
2022-07-27T17:47:39.250Z,0.90
2022-07-27T17:50:25.030Z,0.88
2022-07-27T17:53:10.353Z,1.48
2022-07-27T17:55:57.141Z,0.85
2022-07-27T17:58:46.305Z,1.50
2022-07-27T18:01:47.129Z,0.90
2022-07-27T18:04:39.383Z,1.05
2022-07-27T18:07:25.438Z,1.00
2022-07-27T18:10:10.935Z,1.00
2022-07-27T18:12:56.640Z,1.15
2022-07-27T18:15:47.662Z,1.50
2022-07-27T18:18:33.338Z,1.05
2022-07-27T18:21:18.880Z,1.77
2022-07-27T18:24:04.743Z,0.90
2022-07-27T18:26:51.327Z,1.08
2022-07-27T18:29:37.062Z,0.90
2022-07-27T18:32:24.750Z,0.90
2022-07-27T18:35:10.278Z,0.90
2022-07-27T18:37:55.974Z,0.93
2022-07-27T18:40:44.768Z,0.80
2022-07-27T18:43:30.141Z,1.20
2022-07-27T18:46:17.254Z,0.80
2022-07-27T18:49:03.649Z,0.80
2022-07-27T18:51:49.179Z,1.15
2022-07-27T18:54:34.925Z,0.93
2022-07-27T18:57:20.542Z,0.77
2022-07-27T19:00:06.915Z,0.95
2022-07-27T19:02:57.213Z,0.82
2022-07-27T19:05:44.819Z,0.93
2022-07-27T19:08:31.446Z,0.60
2022-07-27T19:11:16.889Z,0.73
2022-07-27T19:14:03.537Z,0.70
2022-07-27T19:16:52.474Z,0.90
2022-07-27T19:19:37.907Z,0.80
2022-07-27T19:22:23.650Z,0.90
2022-07-27T19:25:09.383Z,0.70
2022-07-27T19:27:55.261Z,1.00
2022-07-27T19:30:41.390Z,0.90
2022-07-27T19:33:26.866Z,1.13
2022-07-27T19:36:12.176Z,1.20
2022-07-27T19:38:57.729Z,0.88
2022-07-27T19:41:43.293Z,0.88
2022-07-27T19:44:29.267Z,0.90
2022-07-27T19:47:14.775Z,1.25
2022-07-27T19:50:01.785Z,1.90
2022-07-27T19:52:47.660Z,0.88
2022-07-27T19:55:33.916Z,0.98
2022-07-27T19:58:19.617Z,0.88
2022-07-27T20:01:04.944Z,1.17
2022-07-27T20:03:56.324Z,0.73
2022-07-27T20:06:42.243Z,0.90
2022-07-27T20:09:29.076Z,0.80
2022-07-27T20:12:14.424Z,0.90
2022-07-27T20:15:00.499Z,0.90
2022-07-27T20:17:45.977Z,0.80
2022-07-27T20:20:31.952Z,1.02
2022-07-27T20:23:18.217Z,0.85
2022-07-27T20:26:04.113Z,1.83
2022-07-27T20:28:50.204Z,0.80
2022-07-27T20:31:35.806Z,0.93
2022-07-27T20:34:21.941Z,0.75
2022-07-27T20:37:07.477Z,0.90
2022-07-27T20:39:55.603Z,1.10
2022-07-27T20:42:43.015Z,1.30
2022-07-27T20:45:28.860Z,1.02
2022-07-27T20:48:14.284Z,1.27
2022-07-27T20:50:59.690Z,1.13
2022-07-27T20:53:45.168Z,1.13
2022-07-27T20:56:30.727Z,1.17
2022-07-27T20:59:17.231Z,1.08
2022-07-27T21:02:04.663Z,0.88
2022-07-27T21:04:51.348Z,1.10
2022-07-27T21:07:37.141Z,1.30
2022-07-27T21:10:24.017Z,0.80
2022-07-27T21:13:09.384Z,1.77
2022-07-27T21:15:54.814Z,1.63
2022-07-27T21:18:40.246Z,1.13
2022-07-27T21:21:27.763Z,1.10
2022-07-27T21:24:17.773Z,1.83
2022-07-27T21:27:04.676Z,1.08
2022-07-27T21:29:50.546Z,1.60
2022-07-27T21:32:36.009Z,1.20
2022-07-27T21:35:21.611Z,1.30
2022-07-27T21:38:07.026Z,1.20
2022-07-27T21:40:52.652Z,1.15
2022-07-27T21:43:38.147Z,1.38
2022-07-27T21:46:24.073Z,1.35
2022-07-27T21:49:10.429Z,1.33
2022-07-27T21:51:55.990Z,1.25
2022-07-27T21:54:41.486Z,0.90
2022-07-27T21:57:26.997Z,1.33
2022-07-27T22:00:16.462Z,1.10
2022-07-27T22:03:02.052Z,1.65
2022-07-27T22:05:47.485Z,1.85
2022-07-27T22:08:33.960Z,1.00
2022-07-27T22:11:19.415Z,1.20
2022-07-27T22:14:04.955Z,1.50
2022-07-27T22:16:50.558Z,1.30
2022-07-27T22:19:36.121Z,1.23
2022-07-27T22:22:21.633Z,0.90
2022-07-27T22:25:07.334Z,1.10
2022-07-27T22:27:52.728Z,1.60
2022-07-27T22:30:40.178Z,1.40
2022-07-27T22:33:25.589Z,1.30
2022-07-27T22:36:11.978Z,1.52
2022-07-27T22:38:57.836Z,1.50
2022-07-27T22:41:43.445Z,1.92
2022-07-27T22:44:29.103Z,1.85
2022-07-27T22:47:14.553Z,1.98
2022-07-27T22:50:00.174Z,2.20
2022-07-27T22:52:45.899Z,2.20
2022-07-27T22:55:31.210Z,1.83
2022-07-27T22:58:17.009Z,1.38
2022-07-27T23:01:02.869Z,1.35
2022-07-27T23:03:48.681Z,1.83
2022-07-27T23:06:34.350Z,1.00
2022-07-27T23:09:19.543Z,1.33
2022-07-27T23:12:05.509Z,1.95
2022-07-27T23:14:51.240Z,1.30
2022-07-27T23:17:36.407Z,1.00
2022-07-27T23:20:21.979Z,1.58
2022-07-27T23:23:15.570Z,2.22
2022-07-27T23:26:02.379Z,1.02
2022-07-27T23:28:48.040Z,1.20
2022-07-27T23:31:33.573Z,1.20
2022-07-27T23:34:19.044Z,1.30
2022-07-27T23:37:04.783Z,0.80
2022-07-27T23:39:50.191Z,1.17
2022-07-27T23:42:35.840Z,1.38
2022-07-27T23:45:21.282Z,1.40
2022-07-27T23:48:06.960Z,1.35
2022-07-27T23:50:52.362Z,1.48
2022-07-27T23:53:37.716Z,1.23
2022-07-27T23:56:23.178Z,1.25
2022-07-27T23:59:08.689Z,1.65
